Time;durP1;ratioP1;P1;durP2;ratioP2;P2;SDS_P1;SDS_P2;PMS_P1;PMS_P2;Temp;Humidity;BMP_temperature;BMP_pressure;BME280_temperature;BME280_humidity;BME280_pressure;Samples;Min_cycle;Max_cycle;Signal;HPM_P1;HPM_P2
2023/07/21 00:01:28;;;;;;;3.70;2.80;;;;;;;19.48;63.29;99934.38;5048298;28;20060;-74
2023/07/21 00:03:56;;;;;;;7.18;2.95;;;;;;;19.51;63.90;99943.03;5030330;28;20065;-76
2023/07/21 00:06:26;;;;;;;5.40;3.30;;;;;;;19.48;63.39;99937.03;5048389;28;20075;-73
2023/07/21 00:08:58;;;;;;;8.70;3.22;;;;;;;19.40;63.75;99932.34;5042653;28;20388;-74
2023/07/21 00:11:27;;;;;;;9.98;3.20;;;;;;;19.37;64.23;99929.09;5042562;28;20037;-74
2023/07/21 00:13:55;;;;;;;4.07;2.70;;;;;;;19.36;64.39;99935.47;5028116;28;20916;-74
2023/07/21 00:16:27;;;;;;;5.50;3.17;;;;;;;19.36;64.39;99933.63;5039779;28;20055;-74
2023/07/21 00:18:55;;;;;;;6.30;2.83;;;;;;;19.31;64.36;99927.00;5037103;28;20195;-75
2023/07/21 00:21:24;;;;;;;4.78;3.10;;;;;;;19.33;64.36;99931.25;5042751;28;20110;-76
2023/07/21 00:23:54;;;;;;;4.13;3.17;;;;;;;19.17;64.47;99904.94;5062112;28;20049;-75
2023/07/21 00:26:24;;;;;;;4.47;3.03;;;;;;;19.29;64.83;99924.44;5050105;28;20132;-75
2023/07/21 00:28:52;;;;;;;9.00;3.28;;;;;;;19.14;65.00;99899.84;5041914;28;20049;-75
2023/07/21 00:31:21;;;;;;;4.80;3.47;;;;;;;19.26;65.22;99924.72;5053109;28;20127;-75
2023/07/21 00:33:50;;;;;;;5.63;3.38;;;;;;;19.26;65.35;99924.72;5041652;28;20044;-76
2023/07/21 00:36:20;;;;;;;7.90;3.15;;;;;;;19.19;65.64;99902.97;5022612;28;20076;-75
2023/07/21 00:38:49;;;;;;;5.57;2.97;;;;;;;19.25;65.63;99913.13;5041158;28;20069;-74
2023/07/21 00:41:19;;;;;;;4.75;2.92;;;;;;;19.27;65.90;99919.22;5050041;28;20056;-74
2023/07/21 00:43:47;;;;;;;6.72;3.05;;;;;;;19.22;65.85;99912.53;5032916;28;20064;-75
2023/07/21 00:46:15;;;;;;;4.15;2.67;;;;;;;19.21;66.20;99919.75;5043626;28;20080;-73
2023/07/21 00:48:44;;;;;;;8.25;3.78;;;;;;;19.15;66.60;99912.28;5020888;28;20055;-75
2023/07/21 00:51:13;;;;;;;7.28;3.03;;;;;;;19.11;66.94;99899.25;5053005;28;20068;-75
2023/07/21 00:53:42;;;;;;;4.10;2.70;;;;;;;19.24;67.36;99910.56;5040443;28;20049;-74
2023/07/21 00:56:11;;;;;;;4.65;3.20;;;;;;;19.24;67.19;99911.41;5045078;28;20053;-74
2023/07/21 00:58:42;;;;;;;3.42;2.85;;;;;;;19.23;67.15;99909.72;5019121;28;20117;-74
2023/07/21 01:01:10;;;;;;;4.18;2.70;;;;;;;19.08;67.33;99876.22;5031803;28;20101;-73
2023/07/21 01:03:39;;;;;;;4.13;3.40;;;;;;;19.20;67.52;99888.53;5039481;28;20041;-75
2023/07/21 01:06:10;;;;;;;6.50;3.17;;;;;;;19.30;67.36;99898.44;5039094;28;20046;-75
2023/07/21 01:08:39;;;;;;;5.38;2.88;;;;;;;19.34;67.47;99910.59;5033037;28;20048;-75
2023/07/21 01:11:10;;;;;;;5.03;2.90;;;;;;;19.36;67.54;99906.78;5049149;28;20505;-75
2023/07/21 01:13:40;;;;;;;5.40;2.83;;;;;;;19.34;67.54;99905.25;5026670;28;20674;-75
2023/07/21 01:16:10;;;;;;;3.88;3.13;;;;;;;19.27;67.54;99900.41;5049454;28;20140;-76
2023/07/21 01:18:43;;;;;;;5.07;3.05;;;;;;;19.16;68.00;99883.59;5044931;28;20052;-75
2023/07/21 01:21:15;;;;;;;3.80;2.77;;;;;;;19.16;68.42;99897.00;5048241;28;20068;-75
2023/07/21 01:23:56;;;;;;;5.68;3.20;;;;;;;18.87;69.23;99854.88;5046365;28;20044;-76
2023/07/21 01:26:29;;;;;;;6.55;3.15;;;;;;;18.97;71.08;99868.31;5034217;28;20539;-74
2023/07/21 01:29:00;;;;;;;3.83;2.90;;;;;;;19.05;71.88;99895.28;5019879;28;20687;-74
2023/07/21 01:31:29;;;;;;;4.47;3.20;;;;;;;18.98;75.49;99885.25;5040382;28;20049;-74
2023/07/21 01:33:59;;;;;;;5.97;3.03;;;;;;;18.96;73.92;99874.66;5047286;28;20102;-74
2023/07/21 01:36:27;;;;;;;5.93;2.90;;;;;;;19.05;73.35;99891.75;5041895;28;20056;-74
2023/07/21 01:38:56;;;;;;;4.10;2.90;;;;;;;19.04;74.96;99904.34;5036868;28;20500;-74
2023/07/21 01:41:32;;;;;;;3.50;3.05;;;;;;;19.07;74.07;99911.25;5042022;28;20048;-74
2023/07/21 01:44:01;;;;;;;4.75;3.00;;;;;;;18.99;74.11;99916.47;5046902;28;20049;-74
2023/07/21 01:46:29;;;;;;;3.97;3.10;;;;;;;18.88;76.04;99933.53;5024143;28;20571;-74
2023/07/21 01:48:58;;;;;;;7.53;3.42;;;;;;;18.74;84.56;99945.44;5024094;28;20041;-75
2023/07/21 01:51:28;;;;;;;4.35;3.80;;;;;;;18.44;84.24;99922.13;5040888;28;20556;-74
2023/07/21 01:54:00;;;;;;;5.27;3.43;;;;;;;18.32;87.05;99944.66;5045045;28;20037;-74
2023/07/21 01:56:37;;;;;;;4.03;3.17;;;;;;;18.14;91.12;99932.81;5046921;28;20072;-75
2023/07/21 01:59:13;;;;;;;5.45;4.07;;;;;;;18.10;94.52;99942.13;5039590;28;20037;-76
2023/07/21 02:01:43;;;;;;;5.78;3.88;;;;;;;17.99;97.77;99936.81;5038884;28;20489;-75
2023/07/21 02:04:13;;;;;;;;;;;;;;;18.04;99.10;99939.97;5034573;28;20831;-75
2023/07/21 02:06:44;;;;;;;5.07;3.80;;;;;;;18.01;100.00;99935.72;5042689;28;20309;-74
2023/07/21 02:09:12;;;;;;;4.28;3.88;;;;;;;17.99;100.00;99928.78;5037241;28;20072;-75
2023/07/21 02:11:42;;;;;;;5.47;4.10;;;;;;;18.01;100.00;99924.13;5045613;28;20275;-72
2023/07/21 02:14:37;;;;;;;6.03;3.83;;;;;;;17.95;100.00;99917.47;5040109;28;20096;-75
2023/07/21 02:17:07;;;;;;;7.03;4.45;;;;;;;17.92;100.00;99908.88;5030455;28;20462;-74
2023/07/21 02:19:36;;;;;;;5.70;4.38;;;;;;;17.90;100.00;99906.31;5033348;28;20033;-74
2023/07/21 02:22:06;;;;;;;5.85;4.28;;;;;;;17.86;100.00;99895.00;5019859;28;20052;-76
2023/07/21 02:24:35;;;;;;;5.25;4.43;;;;;;;17.74;100.00;99873.78;5041948;28;20041;-77
2023/07/21 02:27:07;;;;;;;6.85;4.50;;;;;;;17.78;100.00;99891.28;5041995;28;20518;-75
2023/07/21 02:29:35;;;;;;;5.20;4.70;;;;;;;17.71;100.00;99898.97;5021387;28;20835;-75
2023/07/21 02:32:04;;;;;;;6.47;4.60;;;;;;;17.50;100.00;99880.16;5041523;28;20078;-74
2023/07/21 02:34:33;;;;;;;6.82;4.72;;;;;;;17.48;100.00;99873.25;5038151;28;20535;-75
2023/07/21 02:37:01;;;;;;;5.65;4.93;;;;;;;17.36;100.00;99876.94;5043844;28;20055;-75
2023/07/21 02:39:31;;;;;;;4.75;4.35;;;;;;;17.21;100.00;99848.78;5029466;28;20254;-75
2023/07/21 02:41:59;;;;;;;9.40;5.57;;;;;;;17.28;100.00;99863.38;5045097;28;20056;-74
2023/07/21 02:44:29;;;;;;;7.22;5.30;;;;;;;17.23;100.00;99870.91;5033495;28;20072;-73
2023/07/21 02:46:58;;;;;;;7.70;5.15;;;;;;;17.18;100.00;99872.16;5038616;28;20232;-75
2023/07/21 02:49:29;;;;;;;6.40;5.13;;;;;;;17.12;100.00;99853.94;5009991;28;20034;-75
2023/07/21 02:51:57;;;;;;;7.63;5.63;;;;;;;17.14;100.00;99846.66;5025301;28;20060;-74
2023/07/21 02:54:27;;;;;;;9.02;5.57;;;;;;;17.06;100.00;99838.38;5025126;28;20053;-74
2023/07/21 02:56:57;;;;;;;;;;;;;;;17.17;100.00;99853.53;5041144;28;20053;-73
2023/07/21 02:59:26;;;;;;;9.65;5.53;;;;;;;17.16;100.00;99847.34;5019877;28;20019;-74
2023/07/21 03:01:57;;;;;;;6.68;5.28;;;;;;;17.18;100.00;99853.41;5044846;28;20053;-75
2023/07/21 03:04:34;;;;;;;6.13;5.53;;;;;;;17.22;100.00;99847.81;5052765;28;20041;-75
2023/07/21 03:07:05;;;;;;;6.57;5.45;;;;;;;17.23;100.00;99838.81;5033700;28;20041;-74
2023/07/21 03:09:35;;;;;;;7.93;5.70;;;;;;;17.21;100.00;99833.59;5040334;28;20079;-76
2023/07/21 03:12:06;;;;;;;6.30;4.93;;;;;;;17.25;100.00;99845.75;5032886;28;20490;-74
2023/07/21 03:14:58;;;;;;;6.32;5.45;;;;;;;17.15;100.00;99845.66;5044213;28;20140;-75
2023/07/21 03:17:34;;;;;;;6.85;5.40;;;;;;;17.12;100.00;99840.56;5044124;28;20187;-74
2023/07/21 03:20:10;;;;;;;5.80;5.25;;;;;;;17.15;100.00;99844.81;5032593;28;20077;-74
2023/07/21 03:22:39;;;;;;;6.30;5.57;;;;;;;17.07;100.00;99832.06;5059064;28;20577;-73
2023/07/21 03:25:08;;;;;;;9.90;5.53;;;;;;;17.12;100.00;99824.50;5055242;28;20037;-74
2023/07/21 03:27:41;;;;;;;7.45;5.22;;;;;;;17.07;100.00;99832.06;5055929;28;20064;-74
2023/07/21 03:30:12;;;;;;;6.43;5.82;;;;;;;17.09;100.00;99838.13;5048791;28;20040;-75
2023/07/21 03:32:50;;;;;;;6.35;5.72;;;;;;;17.15;100.00;99840.31;5049016;28;20103;-75
2023/07/21 03:35:19;;;;;;;7.03;5.57;;;;;;;17.21;100.00;99835.41;5043866;28;20080;-76
2023/07/21 03:37:52;;;;;;;8.23;5.75;;;;;;;17.01;100.00;99818.31;5039278;28;20516;-76
2023/07/21 03:40:21;;;;;;;7.35;5.90;;;;;;;17.15;100.00;99851.00;5030304;28;20136;-76
2023/07/21 03:42:49;;;;;;;7.13;5.15;;;;;;;17.18;100.00;99845.38;5026165;28;20052;-76
2023/07/21 03:45:17;;;;;;;8.25;5.50;;;;;;;17.17;100.00;99843.69;5041145;28;20055;-75
2023/07/21 03:47:46;;;;;;;6.43;5.80;;;;;;;17.14;100.00;99838.63;5038576;28;20095;-75
2023/07/21 03:50:16;;;;;;;7.97;5.80;;;;;;;17.16;100.00;99844.66;5032433;28;20041;-74
2023/07/21 03:52:44;;;;;;;7.20;5.80;;;;;;;17.13;100.00;99836.91;5022237;28;20056;-77
2023/07/21 03:55:18;;;;;;;6.50;5.90;;;;;;;17.16;100.00;99857.19;5026610;28;20469;-77
2023/07/21 03:57:47;;;;;;;6.70;6.00;;;;;;;17.14;100.00;99857.34;5042302;28;20648;-76
2023/07/21 04:00:15;;;;;;;7.72;6.22;;;;;;;17.17;100.00;99865.09;5038841;28;20045;-77
2023/07/21 04:02:55;;;;;;;6.78;5.65;;;;;;;17.02;100.00;99833.41;5034885;28;20045;-76
2023/07/21 04:05:24;;;;;;;9.05;5.97;;;;;;;17.00;100.00;99836.19;5053680;28;20805;-77
2023/07/21 04:07:52;;;;;;;6.82;5.80;;;;;;;17.26;100.00;99865.31;5061368;28;20048;-75
2023/07/21 04:10:20;;;;;;;7.82;5.57;;;;;;;17.30;100.00;99862.28;5054849;28;20049;-75
2023/07/21 04:12:49;;;;;;;6.22;5.60;;;;;;;17.34;100.00;99868.19;5062003;28;20083;-75
2023/07/21 04:15:18;;;;;;;6.13;5.53;;;;;;;17.30;100.00;99856.06;5059899;28;20068;-76
2023/07/21 04:17:46;;;;;;;7.25;5.05;;;;;;;17.40;100.00;99865.88;5053982;28;20068;-75
2023/07/21 04:20:14;;;;;;;6.55;5.13;;;;;;;17.46;100.00;99877.91;5054522;28;20072;-76
2023/07/21 04:22:43;;;;;;;5.97;5.38;;;;;;;17.40;100.00;99881.06;5043497;28;20053;-77
2023/07/21 04:25:12;;;;;;;7.60;6.23;;;;;;;17.32;100.00;99873.66;5024157;28;20094;-76
2023/07/21 04:27:41;;;;;;;6.30;5.70;;;;;;;17.28;100.00;99866.91;5038495;28;20067;-76
2023/07/21 04:30:14;;;;;;;6.90;6.20;;;;;;;17.24;100.00;99856.56;5037191;28;20132;-76
2023/07/21 04:32:43;;;;;;;6.63;5.50;;;;;;;17.20;100.00;99845.25;5047398;28;20059;-75
2023/07/21 04:35:11;;;;;;;9.85;6.15;;;;;;;17.22;100.00;99829.09;5040826;28;20057;-76
2023/07/21 04:37:44;;;;;;;7.63;5.55;;;;;;;17.19;100.00;99822.16;5041641;28;20048;-77
2023/07/21 04:40:14;;;;;;;6.45;5.22;;;;;;;17.27;100.00;99834.91;5022319;28;20069;-75
2023/07/21 04:42:45;;;;;;;6.95;6.25;;;;;;;17.35;100.00;99827.06;5044587;28;20046;-75
2023/07/21 04:45:13;;;;;;;7.50;5.70;;;;;;;17.41;100.00;99839.94;5038847;28;20059;-75
2023/07/21 04:47:50;;;;;;;7.53;5.80;;;;;;;17.40;100.00;99835.56;5026411;28;20053;-75
2023/07/21 04:50:22;;;;;;;6.80;6.05;;;;;;;17.37;100.00;99841.19;5036774;28;20110;-76
2023/07/21 04:52:52;;;;;;;12.90;6.75;;;;;;;17.32;100.00;99854.09;5042633;28;20065;-74
2023/07/21 04:55:22;;;;;;;7.03;5.60;;;;;;;17.28;100.00;99866.03;5045005;28;20056;-76
2023/07/21 04:57:52;;;;;;;8.18;6.00;;;;;;;17.31;100.00;99865.81;5027218;28;20052;-76
2023/07/21 05:00:21;;;;;;;8.25;6.07;;;;;;;17.18;100.00;99856.09;5031925;28;20037;-76
2023/07/21 05:02:51;;;;;;;7.57;6.35;;;;;;;17.08;100.00;99852.47;5041342;28;20072;-76
2023/07/21 05:05:19;;;;;;;9.13;6.30;;;;;;;17.08;100.00;99871.22;5043387;28;20095;-76
2023/07/21 05:07:55;;;;;;;8.68;7.55;;;;;;;16.98;100.00;99874.78;5053410;28;20504;-75
2023/07/21 05:10:26;;;;;;;8.02;6.57;;;;;;;16.89;100.00;99867.47;5038679;28;20129;-74
2023/07/21 05:12:55;;;;;;;7.57;6.05;;;;;;;16.84;100.00;99857.19;5042594;28;20041;-75
2023/07/21 05:15:39;;;;;;;8.88;6.10;;;;;;;16.93;100.00;99861.78;5039451;28;20095;-75
2023/07/21 05:18:43;;;;;;;7.25;6.32;;;;;;;16.91;100.00;99855.69;5037314;28;20527;-75
2023/07/21 05:21:24;;;;;;;7.72;6.05;;;;;;;16.85;100.00;99861.53;5042457;28;20040;-76
2023/07/21 05:24:07;;;;;;;6.93;6.00;;;;;;;16.89;100.00;99871.00;5044435;28;20041;-75
2023/07/21 05:26:36;;;;;;;;;;;;;;;16.89;100.00;99871.00;5047853;28;20567;-75
2023/07/21 05:29:15;;;;;;;;;;;;;;;16.87;100.00;99862.25;5041287;28;19921;-75
2023/07/21 05:31:46;;;;;;;8.07;6.00;;;;;;;16.86;100.00;99865.91;5040925;28;19925;-75
2023/07/21 05:34:26;;;;;;;9.75;6.07;;;;;;;16.81;100.00;99852.09;5042694;28;20052;-75
2023/07/21 05:36:56;;;;;;;6.13;5.53;;;;;;;16.88;100.00;99869.31;5043493;28;20037;-75
2023/07/21 05:39:31;;;;;;;5.57;5.05;;;;;;;16.89;100.00;99863.00;5040050;28;20049;-75
2023/07/21 05:42:01;;;;;;;6.05;5.28;;;;;;;16.94;100.00;99860.78;5037934;28;20538;-75
2023/07/21 05:44:33;;;;;;;6.60;4.90;;;;;;;16.98;100.00;99850.72;5016616;28;20120;-75
2023/07/21 05:47:02;;;;;;;6.97;5.50;;;;;;;17.13;100.00;99855.63;5043415;28;20052;-74
2023/07/21 05:49:33;;;;;;;8.02;5.57;;;;;;;17.27;100.00;99856.31;5041562;28;20045;-75
2023/07/21 05:52:02;;;;;;;9.10;5.38;;;;;;;17.42;100.00;99853.22;5042988;28;20483;-74
2023/07/21 05:54:37;;;;;;;6.18;5.15;;;;;;;17.47;100.00;99834.09;5047583;28;20071;-75
2023/07/21 05:57:06;;;;;;;7.05;5.90;;;;;;;17.51;100.00;99831.00;5046595;28;20107;-74
2023/07/21 05:59:38;;;;;;;5.78;4.90;;;;;;;17.72;100.00;99847.13;5038608;28;20172;-76
2023/07/21 06:02:06;;;;;;;8.05;4.78;;;;;;;17.85;100.00;99838.88;5033513;28;20087;-74
2023/07/21 06:04:37;;;;;;;5.32;4.82;;;;;;;17.95;100.00;99841.59;5035732;28;20040;-74
2023/07/21 06:07:31;;;;;;;6.20;4.43;;;;;;;18.02;100.00;99835.59;5053562;28;20095;-74
2023/07/21 06:10:17;;;;;;;6.07;4.88;;;;;;;18.17;100.00;99849.50;5030334;28;20148;-75
2023/07/21 06:12:58;;;;;;;6.70;4.43;;;;;;;18.28;100.00;99840.50;5051568;28;20080;-75
2023/07/21 06:15:49;;;;;;;6.85;4.20;;;;;;;18.34;100.00;99834.63;5038557;28;20053;-74
2023/07/21 06:18:21;;;;;;;5.88;4.47;;;;;;;18.44;100.00;99843.53;5040975;28;20796;-74
2023/07/21 06:20:54;;;;;;;6.07;4.43;;;;;;;18.43;100.00;99829.28;5031447;28;20110;-74
2023/07/21 06:23:23;;;;;;;5.55;5.00;;;;;;;18.51;100.00;99848.25;5041346;28;20063;-77
2023/07/21 06:25:54;;;;;;;5.63;4.22;;;;;;;18.53;100.00;99838.22;5019552;28;20049;-76
2023/07/21 06:28:23;;;;;;;5.75;4.10;;;;;;;18.60;100.00;99843.91;5043347;28;20115;-77
2023/07/21 06:30:51;;;;;;;5.15;4.30;;;;;;;18.62;100.00;99839.25;5035886;28;20045;-76
2023/07/21 06:33:40;;;;;;;4.53;4.05;;;;;;;18.55;100.00;99847.00;5043313;28;20136;-78
2023/07/21 06:36:27;;;;;;;5.38;4.10;;;;;;;18.55;100.00;99855.03;5036409;28;20064;-76
2023/07/21 06:39:09;;;;;;;6.75;3.97;;;;;;;18.54;100.00;99857.84;5039577;28;20041;-77
2023/07/21 06:41:56;;;;;;;6.25;3.83;;;;;;;18.58;100.00;99870.84;5030230;28;20049;-78
2023/07/21 06:44:58;;;;;;;4.45;3.83;;;;;;;18.64;100.00;99861.44;5044090;28;20046;-79
2023/07/21 06:47:33;;;;;;;4.30;3.90;;;;;;;18.72;100.00;99869.66;5060058;28;20111;-79
2023/07/21 06:50:16;;;;;;;5.35;3.90;;;;;;;18.74;100.00;99848.88;5053542;28;20049;-77
2023/07/21 06:52:50;;;;;;;4.72;3.65;;;;;;;18.89;100.00;99868.13;5056982;28;20051;-78
2023/07/21 06:55:24;;;;;;;7.53;3.97;;;;;;;18.93;100.00;99874.91;5022839;28;20084;-77
2023/07/21 06:57:53;;;;;;;5.28;4.03;;;;;;;19.03;100.00;99870.44;5042460;28;20068;-77
2023/07/21 07:00:23;;;;;;;6.53;5.00;;;;;;;19.03;100.00;99861.53;5032197;28;20512;-75
2023/07/21 07:02:51;;;;;;;8.25;5.15;;;;;;;19.06;100.00;99863.91;5015399;28;20053;-76
2023/07/21 07:05:21;;;;;;;9.43;5.82;;;;;;;18.86;100.00;99879.16;5035040;28;20145;-75
2023/07/21 07:07:50;;;;;;;7.18;6.10;;;;;;;18.68;100.00;99864.69;5035895;28;20071;-77
2023/07/21 07:10:19;;;;;;;6.88;5.60;;;;;;;18.83;100.00;99880.28;5034393;28;20045;-78
2023/07/21 07:12:50;;;;;;;5.95;4.80;;;;;;;18.87;100.00;99887.06;5036685;28;20472;-76
2023/07/21 07:15:20;;;;;;;;;;;;;;;18.84;100.00;99881.97;5031152;28;20053;-78
2023/07/21 07:17:49;;;;;;;6.13;5.05;;;;;;;18.84;100.00;99875.75;5037563;28;19956;-77
2023/07/21 07:20:18;;;;;;;6.18;5.55;;;;;;;19.07;100.00;99882.56;5018476;28;20053;-77
2023/07/21 07:22:46;;;;;;;7.57;4.95;;;;;;;19.11;100.00;99877.78;5035320;28;20049;-77
2023/07/21 07:25:14;;;;;;;5.75;4.72;;;;;;;19.20;100.00;99877.78;5046039;28;20135;-77
2023/07/21 07:27:43;;;;;;;5.18;4.47;;;;;;;19.36;100.00;99877.22;5020417;28;20049;-77
2023/07/21 07:30:12;;;;;;;6.60;4.47;;;;;;;19.52;100.00;99869.50;5037295;28;20033;-78
2023/07/21 07:32:41;;;;;;;4.63;4.07;;;;;;;19.85;97.02;99865.50;5037466;28;20053;-77
2023/07/21 07:35:10;;;;;;;6.13;4.50;;;;;;;20.41;96.81;99867.38;5038074;28;20053;-77
2023/07/21 07:37:38;;;;;;;4.47;4.07;;;;;;;21.13;89.00;99873.78;5033532;28;20056;-77
2023/07/21 07:40:10;;;;;;;5.05;3.97;;;;;;;21.53;82.09;99882.31;5047967;28;20487;-76
2023/07/21 07:42:40;;;;;;;5.10;3.88;;;;;;;21.53;80.06;99874.25;5035249;28;20543;-76
2023/07/21 07:45:08;;;;;;;4.15;3.70;;;;;;;21.37;77.82;99876.78;5038938;28;20037;-77
2023/07/21 07:47:38;;;;;;;4.55;3.58;;;;;;;21.15;80.28;99872.66;5034872;28;20040;-82
2023/07/21 07:50:11;;;;;;;6.50;3.60;;;;;;;20.61;81.16;99817.03;5019273;28;20049;-76
2023/07/21 07:52:43;;;;;;;3.35;3.05;;;;;;;20.79;81.72;99879.78;5039324;28;20037;-78
2023/07/21 07:55:11;;;;;;;4.22;3.50;;;;;;;20.59;82.60;99881.75;5044064;28;20098;-78
2023/07/21 07:57:39;;;;;;;4.85;3.45;;;;;;;20.47;84.57;99882.06;5039122;28;20697;-78
2023/07/21 08:00:08;;;;;;;5.22;3.58;;;;;;;20.31;85.40;99863.84;5034197;28;20380;-78
2023/07/21 08:02:40;;;;;;;4.80;3.30;;;;;;;20.44;86.47;99872.47;5041555;28;20041;-77
2023/07/21 08:05:12;;;;;;;6.20;3.88;;;;;;;20.60;86.69;99874.53;5046855;28;20037;-77
2023/07/21 08:07:41;;;;;;;5.68;4.63;;;;;;;20.63;85.82;99879.59;5052406;28;20065;-78
2023/07/21 08:10:10;;;;;;;4.68;3.50;;;;;;;20.79;83.17;99884.34;5060120;28;20049;-77
2023/07/21 08:12:39;;;;;;;3.43;3.13;;;;;;;20.89;81.32;99858.22;5058388;28;20028;-78
2023/07/21 08:15:08;;;;;;;6.05;3.80;;;;;;;21.15;79.11;99879.88;5054381;28;20502;-78
2023/07/21 08:17:37;;;;;;;4.45;3.65;;;;;;;21.29;77.71;99872.16;5059935;28;20053;-78
2023/07/21 08:20:08;;;;;;;8.33;3.80;;;;;;;21.42;76.32;99861.00;5049514;28;20045;-78
2023/07/21 08:22:39;;;;;;;4.80;4.20;;;;;;;21.24;79.46;99863.69;5043629;28;20037;-78
2023/07/21 08:25:08;;;;;;;5.80;3.88;;;;;;;20.92;81.70;99845.31;5050770;28;20144;-77
2023/07/21 08:27:38;;;;;;;9.57;3.67;;;;;;;21.06;82.59;99862.81;5049424;28;20071;-77
2023/07/21 08:30:08;;;;;;;;;;;;;;;21.26;79.80;99864.38;5057983;28;20116;-77
2023/07/21 08:32:37;;;;;;;8.27;3.20;;;;;;;21.30;77.51;99863.06;5046585;28;19992;-77
2023/07/21 08:35:06;;;;;;;4.13;3.10;;;;;;;21.40;74.59;99864.88;5046466;28;20091;-76
2023/07/21 08:37:34;;;;;;;7.32;4.47;;;;;;;21.46;81.50;99870.47;5042301;28;20045;-76
2023/07/21 08:40:06;;;;;;;5.40;4.50;;;;;;;21.52;83.76;99871.69;5043151;28;20065;-76
2023/07/21 08:42:35;;;;;;;7.13;4.55;;;;;;;21.60;85.28;99869.06;5027913;28;20044;-78
2023/07/21 08:45:06;;;;;;;5.45;4.47;;;;;;;21.68;86.05;99843.06;5051877;28;20045;-77
2023/07/21 08:47:34;;;;;;;8.20;4.65;;;;;;;21.74;80.40;99846.09;5029654;28;20041;-77
2023/07/21 08:50:05;;;;;;;4.85;4.35;;;;;;;21.72;82.51;99862.44;5049194;28;20045;-76
2023/07/21 08:52:34;;;;;;;4.97;3.92;;;;;;;21.69;83.84;99852.81;5027023;28;22203;-77
2023/07/21 08:55:02;;;;;;;6.38;3.80;;;;;;;21.82;82.07;99867.75;5048916;28;20099;-77
2023/07/21 08:57:33;;;;;;;;;;;;;;;21.72;77.91;99869.69;5030060;28;20055;-77
2023/07/21 09:00:03;;;;;;;5.10;3.90;;;;;;;21.49;78.13;99875.53;5037830;28;19936;-77
2023/07/21 09:02:38;;;;;;;5.83;3.70;;;;;;;21.28;79.70;99880.38;5030311;28;20051;-76
2023/07/21 09:05:07;;;;;;;4.03;3.60;;;;;;;21.20;79.10;99872.22;5040860;28;20634;-77
2023/07/21 09:07:40;;;;;;;8.50;4.05;;;;;;;21.26;77.97;99877.84;5030711;28;20048;-77
2023/07/21 09:10:10;;;;;;;9.60;4.25;;;;;;;21.29;78.36;99877.53;5045973;28;20144;-76
2023/07/21 09:12:40;;;;;;;3.85;3.03;;;;;;;21.20;78.90;99878.47;5039377;28;20092;-76
2023/07/21 09:15:14;;;;;;;5.72;3.45;;;;;;;21.04;80.74;99847.78;5045107;28;20128;-75
2023/07/21 09:17:44;;;;;;;6.95;4.35;;;;;;;21.13;80.37;99888.09;5046891;28;20057;-78
2023/07/21 09:20:12;;;;;;;4.50;3.75;;;;;;;21.07;79.08;99886.03;5033548;28;20049;-77
2023/07/21 09:22:40;;;;;;;7.05;4.03;;;;;;;21.07;81.02;99872.56;5040502;28;20109;-76
2023/07/21 09:25:20;;;;;;;3.72;3.38;;;;;;;21.17;79.85;99883.25;5046010;28;20100;-77
2023/07/21 09:27:55;;;;;;;4.35;3.22;;;;;;;21.13;78.54;99879.19;5026216;28;20083;-77
2023/07/21 09:30:24;;;;;;;4.45;3.75;;;;;;;21.17;78.38;99878.72;5033218;28;20111;-77
2023/07/21 09:32:55;;;;;;;4.70;3.25;;;;;;;21.29;75.14;99882.06;5038952;28;20049;-75
2023/07/21 09:35:25;;;;;;;7.57;3.13;;;;;;;21.34;75.24;99861.78;5025137;28;20140;-77
2023/07/21 09:37:55;;;;;;;3.67;2.97;;;;;;;21.65;73.61;99872.16;5044658;28;20052;-78
2023/07/21 09:40:28;;;;;;;3.42;3.10;;;;;;;22.03;72.54;99877.22;5033321;28;20041;-77
2023/07/21 09:42:58;;;;;;;4.82;3.15;;;;;;;22.27;69.92;99867.56;5056639;28;20045;-77
2023/07/21 09:45:27;;;;;;;;;;;;;;;22.57;69.35;99872.47;5042357;28;20041;-76
2023/07/21 09:47:57;;;;;;;4.25;2.97;;;;;;;22.82;67.76;99878.00;5044087;28;19948;-76
2023/07/21 09:50:25;;;;;;;7.88;3.30;;;;;;;23.07;66.60;99866.25;5040098;28;20044;-76
2023/07/21 09:52:56;;;;;;;3.78;2.38;;;;;;;23.12;59.50;99873.88;5037221;28;20098;-77
2023/07/21 09:55:27;;;;;;;3.50;2.30;;;;;;;23.20;57.44;99855.81;5044638;28;20128;-77
2023/07/21 09:57:55;;;;;;;2.28;2.05;;;;;;;23.17;54.58;99866.94;5043554;28;20049;-77
2023/07/21 10:00:28;;;;;;;3.95;2.42;;;;;;;23.01;57.68;99846.16;5051412;28;20050;-77
2023/07/21 10:02:57;;;;;;;3.78;2.60;;;;;;;22.98;59.70;99872.66;5052651;28;20400;-76
2023/07/21 10:05:26;;;;;;;5.28;2.70;;;;;;;22.67;61.17;99870.47;5038124;28;20096;-78
2023/07/21 10:07:56;;;;;;;5.43;3.97;;;;;;;22.64;63.34;99872.66;5059158;28;20049;-79
2023/07/21 10:10:24;;;;;;;4.85;2.70;;;;;;;22.75;65.31;99875.06;5055876;28;20460;-76
2023/07/21 10:12:53;;;;;;;4.28;2.67;;;;;;;22.66;64.51;99876.06;5040928;28;20052;-77
2023/07/21 10:15:33;;;;;;;4.13;3.03;;;;;;;22.94;64.61;99861.34;5051270;28;20543;-77
2023/07/21 10:18:03;;;;;;;3.75;2.60;;;;;;;22.88;63.01;99869.22;5043258;28;20046;-77
2023/07/21 10:20:40;;;;;;;3.42;2.72;;;;;;;22.68;63.63;99865.91;5043286;28;20402;-78
2023/07/21 10:23:10;;;;;;;5.05;2.80;;;;;;;22.58;63.75;99866.06;5040470;28;20040;-77
2023/07/21 10:26:03;;;;;;;4.00;2.90;;;;;;;22.77;60.95;99853.34;5048955;28;20552;-77
2023/07/21 10:28:37;;;;;;;4.97;2.92;;;;;;;23.04;57.49;99870.13;5041510;28;20046;-76
2023/07/21 10:31:33;;;;;;;4.75;3.28;;;;;;;23.19;59.73;99864.09;5050466;28;20550;-79
2023/07/21 10:34:02;;;;;;;3.72;3.00;;;;;;;23.10;59.42;99852.44;5045983;28;20053;-77
2023/07/21 10:36:46;;;;;;;4.20;2.70;;;;;;;22.88;60.00;99858.44;5037895;28;20132;-77
2023/07/21 10:39:20;;;;;;;3.67;2.95;;;;;;;22.69;59.77;99860.34;5043361;28;20045;-76
2023/07/21 10:41:50;;;;;;;3.47;2.70;;;;;;;22.64;60.80;99865.41;5053543;28;20113;-76
2023/07/21 10:44:19;;;;;;;4.15;3.10;;;;;;;22.40;63.76;99873.38;5035596;28;20053;-76
2023/07/21 10:46:50;;;;;;;3.90;2.90;;;;;;;22.22;61.62;99864.50;5056048;28;20544;-77
2023/07/21 10:49:20;;;;;;;3.72;2.90;;;;;;;22.33;61.17;99864.25;5054014;28;20049;-77
2023/07/21 10:51:50;;;;;;;3.75;2.60;;;;;;;22.47;62.24;99866.34;5033624;28;20361;-79
2023/07/21 10:54:18;;;;;;;4.22;2.78;;;;;;;22.64;60.03;99864.56;5056581;28;20071;-78
2023/07/21 10:56:50;;;;;;;4.78;3.53;;;;;;;22.56;57.71;99845.63;5050911;28;20077;-78
2023/07/21 10:59:19;;;;;;;3.50;2.90;;;;;;;22.52;57.38;99866.69;5061653;28;20065;-77
2023/07/21 11:01:51;;;;;;;3.92;2.72;;;;;;;22.45;57.17;99859.41;5049499;28;20045;-77
2023/07/21 11:04:20;;;;;;;4.50;2.90;;;;;;;22.68;59.55;99863.22;5052520;28;20056;-77
2023/07/21 11:06:50;;;;;;;3.37;2.40;;;;;;;22.75;58.09;99870.53;5055483;28;20041;-78
2023/07/21 11:09:21;;;;;;;4.15;2.85;;;;;;;22.75;59.94;99862.41;5037296;28;20041;-78
2023/07/21 11:11:52;;;;;;;5.65;2.83;;;;;;;22.93;58.55;99858.81;5048360;28;20051;-78
2023/07/21 11:14:23;;;;;;;3.70;2.72;;;;;;;23.09;57.34;99864.25;5042632;28;20116;-76
2023/07/21 11:16:56;;;;;;;3.67;2.53;;;;;;;23.34;55.57;99848.91;5035098;28;20576;-77
2023/07/21 11:19:26;;;;;;;3.67;2.75;;;;;;;23.34;56.78;99844.34;5047989;28;20063;-76
2023/07/21 11:21:55;;;;;;;4.22;3.03;;;;;;;23.04;56.18;99840.44;5048584;28;20540;-77
2023/07/21 11:24:28;;;;;;;3.45;2.42;;;;;;;22.90;56.72;99841.06;5030146;28;20137;-75
2023/07/21 11:27:02;;;;;;;3.72;2.78;;;;;;;22.90;58.45;99853.72;5050194;28;20180;-76
2023/07/21 11:29:37;;;;;;;3.65;2.42;;;;;;;22.85;57.97;99840.72;5056334;28;20049;-76
2023/07/21 11:32:19;;;;;;;4.60;2.33;;;;;;;23.04;55.68;99853.09;5054189;28;20045;-78
2023/07/21 11:34:55;;;;;;;6.38;3.92;;;;;;;22.99;55.91;99848.16;5050485;28;20041;-77
2023/07/21 11:37:36;;;;;;;3.53;2.45;;;;;;;22.91;56.16;99845.47;5051780;28;20607;-78
2023/07/21 11:40:08;;;;;;;2.67;2.20;;;;;;;22.81;54.99;99831.28;5054231;28;20493;-74
2023/07/21 11:42:47;;;;;;;4.20;2.10;;;;;;;22.78;54.38;99828.03;5054270;28;20053;-76
2023/07/21 11:45:35;;;;;;;3.03;1.88;;;;;;;22.82;53.00;99832.97;5053831;28;20033;-77
2023/07/21 11:48:17;;;;;;;4.05;2.15;;;;;;;23.03;52.98;99832.50;5058569;28;20096;-74
2023/07/21 11:50:53;;;;;;;4.03;2.40;;;;;;;23.23;52.75;99844.69;5038056;28;20118;-76
2023/07/21 11:53:23;;;;;;;6.32;3.05;;;;;;;23.26;51.27;99844.38;5052815;28;20059;-76